sensor_id;sensor_type;location;lat;lon;timestamp;P1;durP1;ratioP1;P2;durP2;ratioP2
6505;SDS011;3286;49.858;8.768;2023-12-14T00:00:25;7.43;;;3.80;;
6505;SDS011;3286;49.858;8.768;2023-12-14T00:02:51;6.37;;;4.07;;
6505;SDS011;3286;49.858;8.768;2023-12-14T00:05:17;4.97;;;3.67;;
6505;SDS011;3286;49.858;8.768;2023-12-14T00:07:44;5.50;;;3.37;;
6505;SDS011;3286;49.858;8.768;2023-12-14T00:10:12;5.60;;;3.50;;
6505;SDS011;3286;49.858;8.768;2023-12-14T00:12:39;7.20;;;4.10;;
6505;SDS011;3286;49.858;8.768;2023-12-14T00:15:06;8.17;;;4.70;;
6505;SDS011;3286;49.858;8.768;2023-12-14T00:17:33;6.67;;;4.37;;
6505;SDS011;3286;49.858;8.768;2023-12-14T00:20:00;8.50;;;4.83;;
6505;SDS011;3286;49.858;8.768;2023-12-14T00:22:28;10.87;;;4.50;;
6505;SDS011;3286;49.858;8.768;2023-12-14T00:24:54;7.27;;;4.47;;
6505;SDS011;3286;49.858;8.768;2023-12-14T00:27:22;5.57;;;3.60;;
6505;SDS011;3286;49.858;8.768;2023-12-14T00:29:49;7.43;;;4.10;;
6505;SDS011;3286;49.858;8.768;2023-12-14T00:32:16;7.33;;;4.37;;
6505;SDS011;3286;49.858;8.768;2023-12-14T00:34:42;5.47;;;4.03;;
6505;SDS011;3286;49.858;8.768;2023-12-14T00:37:09;9.17;;;4.53;;
6505;SDS011;3286;49.858;8.768;2023-12-14T00:39:35;8.20;;;4.50;;
6505;SDS011;3286;49.858;8.768;2023-12-14T00:42:02;6.60;;;4.60;;
6505;SDS011;3286;49.858;8.768;2023-12-14T00:44:31;7.77;;;4.23;;
6505;SDS011;3286;49.858;8.768;2023-12-14T00:46:58;4.97;;;3.53;;
6505;SDS011;3286;49.858;8.768;2023-12-14T00:49:25;4.80;;;3.70;;
6505;SDS011;3286;49.858;8.768;2023-12-14T00:51:53;5.17;;;3.63;;
6505;SDS011;3286;49.858;8.768;2023-12-14T00:54:19;5.50;;;4.03;;
6505;SDS011;3286;49.858;8.768;2023-12-14T00:56:46;6.83;;;3.43;;
6505;SDS011;3286;49.858;8.768;2023-12-14T00:59:13;7.07;;;4.10;;
6505;SDS011;3286;49.858;8.768;2023-12-14T01:01:41;8.77;;;4.57;;
6505;SDS011;3286;49.858;8.768;2023-12-14T01:04:07;6.53;;;3.90;;
6505;SDS011;3286;49.858;8.768;2023-12-14T01:06:34;8.97;;;4.33;;
6505;SDS011;3286;49.858;8.768;2023-12-14T01:09:00;6.23;;;4.30;;
6505;SDS011;3286;49.858;8.768;2023-12-14T01:11:27;6.33;;;3.97;;
6505;SDS011;3286;49.858;8.768;2023-12-14T01:13:54;6.73;;;4.37;;
6505;SDS011;3286;49.858;8.768;2023-12-14T01:16:20;9.13;;;4.37;;
6505;SDS011;3286;49.858;8.768;2023-12-14T01:18:48;7.23;;;4.20;;
6505;SDS011;3286;49.858;8.768;2023-12-14T01:21:15;6.17;;;4.37;;
6505;SDS011;3286;49.858;8.768;2023-12-14T01:23:42;5.27;;;3.73;;
6505;SDS011;3286;49.858;8.768;2023-12-14T01:26:08;7.07;;;3.57;;
6505;SDS011;3286;49.858;8.768;2023-12-14T01:28:35;5.73;;;3.83;;
6505;SDS011;3286;49.858;8.768;2023-12-14T01:31:02;6.50;;;3.90;;
6505;SDS011;3286;49.858;8.768;2023-12-14T01:33:29;5.93;;;3.57;;
6505;SDS011;3286;49.858;8.768;2023-12-14T01:35:57;6.87;;;4.00;;
6505;SDS011;3286;49.858;8.768;2023-12-14T01:38:24;4.57;;;3.53;;
6505;SDS011;3286;49.858;8.768;2023-12-14T01:40:50;10.20;;;5.03;;
6505;SDS011;3286;49.858;8.768;2023-12-14T01:43:17;9.67;;;4.60;;
6505;SDS011;3286;49.858;8.768;2023-12-14T01:45:44;10.90;;;4.97;;
6505;SDS011;3286;49.858;8.768;2023-12-14T01:48:10;8.23;;;4.70;;
6505;SDS011;3286;49.858;8.768;2023-12-14T01:50:37;8.70;;;4.27;;
6505;SDS011;3286;49.858;8.768;2023-12-14T01:53:05;5.60;;;4.40;;
6505;SDS011;3286;49.858;8.768;2023-12-14T01:55:32;7.20;;;4.07;;
6505;SDS011;3286;49.858;8.768;2023-12-14T01:57:58;6.73;;;4.30;;
6505;SDS011;3286;49.858;8.768;2023-12-14T02:00:28;9.13;;;4.87;;
6505;SDS011;3286;49.858;8.768;2023-12-14T02:03:01;9.40;;;4.77;;
6505;SDS011;3286;49.858;8.768;2023-12-14T02:05:28;9.63;;;4.70;;
6505;SDS011;3286;49.858;8.768;2023-12-14T02:07:55;8.03;;;4.10;;
6505;SDS011;3286;49.858;8.768;2023-12-14T02:10:24;8.83;;;4.90;;
6505;SDS011;3286;49.858;8.768;2023-12-14T02:12:51;7.80;;;4.87;;
6505;SDS011;3286;49.858;8.768;2023-12-14T02:15:17;10.83;;;4.90;;
6505;SDS011;3286;49.858;8.768;2023-12-14T02:17:45;10.40;;;4.63;;
6505;SDS011;3286;49.858;8.768;2023-12-14T02:20:12;6.50;;;4.93;;
6505;SDS011;3286;49.858;8.768;2023-12-14T02:22:49;9.43;;;4.60;;
6505;SDS011;3286;49.858;8.768;2023-12-14T02:25:16;6.70;;;4.57;;
6505;SDS011;3286;49.858;8.768;2023-12-14T02:27:43;6.93;;;4.50;;
6505;SDS011;3286;49.858;8.768;2023-12-14T02:30:10;8.90;;;4.40;;
6505;SDS011;3286;49.858;8.768;2023-12-14T02:32:37;7.07;;;4.53;;
6505;SDS011;3286;49.858;8.768;2023-12-14T02:35:05;6.23;;;4.37;;
6505;SDS011;3286;49.858;8.768;2023-12-14T02:37:32;12.40;;;5.40;;
6505;SDS011;3286;49.858;8.768;2023-12-14T02:40:00;7.23;;;5.10;;
6505;SDS011;3286;49.858;8.768;2023-12-14T02:42:27;10.20;;;6.07;;
6505;SDS011;3286;49.858;8.768;2023-12-14T02:44:54;7.70;;;5.47;;
6505;SDS011;3286;49.858;8.768;2023-12-14T02:47:20;13.40;;;5.80;;
6505;SDS011;3286;49.858;8.768;2023-12-14T02:49:47;12.13;;;6.43;;
6505;SDS011;3286;49.858;8.768;2023-12-14T02:52:14;11.93;;;6.13;;
6505;SDS011;3286;49.858;8.768;2023-12-14T02:54:40;7.83;;;5.30;;
6505;SDS011;3286;49.858;8.768;2023-12-14T02:57:08;6.47;;;4.90;;
6505;SDS011;3286;49.858;8.768;2023-12-14T02:59:35;13.17;;;6.10;;
6505;SDS011;3286;49.858;8.768;2023-12-14T03:02:02;9.20;;;5.40;;
6505;SDS011;3286;49.858;8.768;2023-12-14T03:04:29;10.83;;;6.27;;
6505;SDS011;3286;49.858;8.768;2023-12-14T03:06:55;10.07;;;6.13;;
6505;SDS011;3286;49.858;8.768;2023-12-14T03:09:22;10.73;;;6.67;;
6505;SDS011;3286;49.858;8.768;2023-12-14T03:11:49;8.83;;;5.77;;
6505;SDS011;3286;49.858;8.768;2023-12-14T03:14:16;11.03;;;6.27;;
6505;SDS011;3286;49.858;8.768;2023-12-14T03:16:43;9.30;;;5.67;;
6505;SDS011;3286;49.858;8.768;2023-12-14T03:19:13;9.27;;;6.13;;
6505;SDS011;3286;49.858;8.768;2023-12-14T03:21:40;7.87;;;5.30;;
6505;SDS011;3286;49.858;8.768;2023-12-14T03:24:06;9.50;;;6.37;;
6505;SDS011;3286;49.858;8.768;2023-12-14T03:26:34;12.87;;;6.83;;
6505;SDS011;3286;49.858;8.768;2023-12-14T03:29:01;9.27;;;6.07;;
6505;SDS011;3286;49.858;8.768;2023-12-14T03:31:29;11.60;;;6.33;;
6505;SDS011;3286;49.858;8.768;2023-12-14T03:33:55;12.87;;;6.87;;
6505;SDS011;3286;49.858;8.768;2023-12-14T03:36:22;15.57;;;8.10;;
6505;SDS011;3286;49.858;8.768;2023-12-14T03:38:51;14.77;;;7.40;;
6505;SDS011;3286;49.858;8.768;2023-12-14T03:41:18;13.47;;;7.57;;
6505;SDS011;3286;49.858;8.768;2023-12-14T03:43:44;14.77;;;8.30;;
6505;SDS011;3286;49.858;8.768;2023-12-14T03:46:11;14.33;;;7.77;;
6505;SDS011;3286;49.858;8.768;2023-12-14T03:48:39;19.30;;;7.97;;
6505;SDS011;3286;49.858;8.768;2023-12-14T03:51:06;14.57;;;7.17;;
6505;SDS011;3286;49.858;8.768;2023-12-14T03:53:32;13.70;;;7.90;;
6505;SDS011;3286;49.858;8.768;2023-12-14T03:55:59;13.43;;;7.07;;
6505;SDS011;3286;49.858;8.768;2023-12-14T03:58:26;10.77;;;6.23;;
6505;SDS011;3286;49.858;8.768;2023-12-14T04:00:53;12.97;;;7.40;;
6505;SDS011;3286;49.858;8.768;2023-12-14T04:03:20;13.73;;;6.83;;
6505;SDS011;3286;49.858;8.768;2023-12-14T04:05:48;16.37;;;7.80;;
6505;SDS011;3286;49.858;8.768;2023-12-14T04:08:14;12.30;;;7.50;;
6505;SDS011;3286;49.858;8.768;2023-12-14T04:10:41;14.50;;;8.00;;
6505;SDS011;3286;49.858;8.768;2023-12-14T04:13:08;15.03;;;7.40;;
6505;SDS011;3286;49.858;8.768;2023-12-14T04:15:34;13.37;;;7.50;;
6505;SDS011;3286;49.858;8.768;2023-12-14T04:18:01;17.63;;;7.73;;
6505;SDS011;3286;49.858;8.768;2023-12-14T04:20:28;15.70;;;7.67;;
6505;SDS011;3286;49.858;8.768;2023-12-14T04:22:56;16.57;;;8.30;;
6505;SDS011;3286;49.858;8.768;2023-12-14T04:25:23;14.77;;;8.27;;
6505;SDS011;3286;49.858;8.768;2023-12-14T04:27:50;14.77;;;7.03;;
6505;SDS011;3286;49.858;8.768;2023-12-14T04:30:17;12.40;;;7.47;;
6505;SDS011;3286;49.858;8.768;2023-12-14T04:32:43;17.87;;;8.07;;
6505;SDS011;3286;49.858;8.768;2023-12-14T04:35:11;11.80;;;7.37;;
6505;SDS011;3286;49.858;8.768;2023-12-14T04:37:38;15.80;;;8.20;;
6505;SDS011;3286;49.858;8.768;2023-12-14T04:40:07;13.97;;;7.80;;
6505;SDS011;3286;49.858;8.768;2023-12-14T04:42:34;15.27;;;8.40;;
6505;SDS011;3286;49.858;8.768;2023-12-14T04:45:02;16.97;;;8.53;;
6505;SDS011;3286;49.858;8.768;2023-12-14T04:47:29;12.73;;;8.30;;
6505;SDS011;3286;49.858;8.768;2023-12-14T04:49:55;13.57;;;8.20;;
6505;SDS011;3286;49.858;8.768;2023-12-14T04:52:22;20.43;;;8.83;;
6505;SDS011;3286;49.858;8.768;2023-12-14T04:54:49;18.03;;;7.90;;
6505;SDS011;3286;49.858;8.768;2023-12-14T04:57:17;14.57;;;7.80;;
6505;SDS011;3286;49.858;8.768;2023-12-14T04:59:44;15.03;;;8.53;;
6505;SDS011;3286;49.858;8.768;2023-12-14T05:02:10;15.43;;;7.87;;
6505;SDS011;3286;49.858;8.768;2023-12-14T05:04:37;14.10;;;8.03;;
6505;SDS011;3286;49.858;8.768;2023-12-14T05:07:04;18.40;;;8.90;;
6505;SDS011;3286;49.858;8.768;2023-12-14T05:09:30;17.30;;;9.10;;
6505;SDS011;3286;49.858;8.768;2023-12-14T05:11:57;16.03;;;9.47;;
6505;SDS011;3286;49.858;8.768;2023-12-14T05:14:26;14.57;;;8.63;;
6505;SDS011;3286;49.858;8.768;2023-12-14T05:16:54;15.97;;;8.30;;
6505;SDS011;3286;49.858;8.768;2023-12-14T05:19:21;13.67;;;6.90;;
6505;SDS011;3286;49.858;8.768;2023-12-14T05:21:47;12.60;;;7.30;;
6505;SDS011;3286;49.858;8.768;2023-12-14T05:24:14;14.77;;;7.87;;
6505;SDS011;3286;49.858;8.768;2023-12-14T05:26:41;15.60;;;8.27;;
6505;SDS011;3286;49.858;8.768;2023-12-14T05:29:07;12.60;;;7.60;;
6505;SDS011;3286;49.858;8.768;2023-12-14T05:31:35;13.30;;;8.03;;
6505;SDS011;3286;49.858;8.768;2023-12-14T05:34:03;13.20;;;8.50;;
6505;SDS011;3286;49.858;8.768;2023-12-14T05:36:29;18.63;;;8.00;;
6505;SDS011;3286;49.858;8.768;2023-12-14T05:38:56;15.87;;;8.67;;
6505;SDS011;3286;49.858;8.768;2023-12-14T05:41:23;14.67;;;8.10;;
6505;SDS011;3286;49.858;8.768;2023-12-14T05:43:50;14.07;;;7.73;;
6505;SDS011;3286;49.858;8.768;2023-12-14T05:46:20;12.83;;;8.13;;
6505;SDS011;3286;49.858;8.768;2023-12-14T05:48:48;15.03;;;8.33;;
6505;SDS011;3286;49.858;8.768;2023-12-14T05:51:25;16.40;;;9.23;;
6505;SDS011;3286;49.858;8.768;2023-12-14T05:53:52;17.07;;;8.63;;
6505;SDS011;3286;49.858;8.768;2023-12-14T05:56:19;14.03;;;8.57;;
6505;SDS011;3286;49.858;8.768;2023-12-14T05:58:45;16.07;;;8.77;;
6505;SDS011;3286;49.858;8.768;2023-12-14T06:01:12;16.03;;;8.97;;
6505;SDS011;3286;49.858;8.768;2023-12-14T06:03:39;17.40;;;8.47;;
6505;SDS011;3286;49.858;8.768;2023-12-14T06:06:07;14.37;;;8.50;;
6505;SDS011;3286;49.858;8.768;2023-12-14T06:08:34;14.00;;;8.67;;
6505;SDS011;3286;49.858;8.768;2023-12-14T06:11:00;14.47;;;9.47;;
6505;SDS011;3286;49.858;8.768;2023-12-14T06:13:27;19.30;;;10.97;;
6505;SDS011;3286;49.858;8.768;2023-12-14T06:15:53;19.50;;;10.40;;
6505;SDS011;3286;49.858;8.768;2023-12-14T06:18:20;19.33;;;10.60;;
6505;SDS011;3286;49.858;8.768;2023-12-14T06:20:46;21.10;;;10.77;;
6505;SDS011;3286;49.858;8.768;2023-12-14T06:23:15;21.23;;;11.57;;
6505;SDS011;3286;49.858;8.768;2023-12-14T06:25:42;20.13;;;10.97;;
6505;SDS011;3286;49.858;8.768;2023-12-14T06:28:09;16.10;;;10.47;;
6505;SDS011;3286;49.858;8.768;2023-12-14T06:30:37;21.80;;;10.60;;
6505;SDS011;3286;49.858;8.768;2023-12-14T06:33:03;20.47;;;10.37;;
6505;SDS011;3286;49.858;8.768;2023-12-14T06:35:30;17.17;;;10.30;;
6505;SDS011;3286;49.858;8.768;2023-12-14T06:37:57;21.53;;;10.20;;
6505;SDS011;3286;49.858;8.768;2023-12-14T06:40:25;15.50;;;9.50;;
6505;SDS011;3286;49.858;8.768;2023-12-14T06:42:51;18.97;;;10.53;;
6505;SDS011;3286;49.858;8.768;2023-12-14T06:45:18;44.00;;;11.10;;
6505;SDS011;3286;49.858;8.768;2023-12-14T06:47:45;17.90;;;9.27;;
6505;SDS011;3286;49.858;8.768;2023-12-14T06:50:12;15.57;;;9.50;;
6505;SDS011;3286;49.858;8.768;2023-12-14T06:52:39;19.13;;;9.97;;
6505;SDS011;3286;49.858;8.768;2023-12-14T06:55:06;16.87;;;9.23;;
6505;SDS011;3286;49.858;8.768;2023-12-14T06:57:35;21.37;;;10.30;;
6505;SDS011;3286;49.858;8.768;2023-12-14T07:00:02;16.57;;;9.50;;
6505;SDS011;3286;49.858;8.768;2023-12-14T07:02:29;16.07;;;9.87;;
6505;SDS011;3286;49.858;8.768;2023-12-14T07:04:56;16.47;;;9.50;;
6505;SDS011;3286;49.858;8.768;2023-12-14T07:07:22;21.03;;;9.80;;
6505;SDS011;3286;49.858;8.768;2023-12-14T07:09:49;15.90;;;8.50;;
6505;SDS011;3286;49.858;8.768;2023-12-14T07:12:16;17.77;;;8.87;;
6505;SDS011;3286;49.858;8.768;2023-12-14T07:14:44;15.43;;;8.57;;
6505;SDS011;3286;49.858;8.768;2023-12-14T07:17:11;16.63;;;7.87;;
6505;SDS011;3286;49.858;8.768;2023-12-14T07:19:37;12.43;;;7.60;;
6505;SDS011;3286;49.858;8.768;2023-12-14T07:22:04;16.47;;;8.80;;
6505;SDS011;3286;49.858;8.768;2023-12-14T07:24:31;13.20;;;7.37;;
6505;SDS011;3286;49.858;8.768;2023-12-14T07:26:57;13.70;;;7.40;;
6505;SDS011;3286;49.858;8.768;2023-12-14T07:29:24;12.63;;;6.93;;
6505;SDS011;3286;49.858;8.768;2023-12-14T07:31:52;11.40;;;7.17;;
6505;SDS011;3286;49.858;8.768;2023-12-14T07:34:18;11.63;;;7.47;;
6505;SDS011;3286;49.858;8.768;2023-12-14T07:36:45;20.20;;;7.93;;
6505;SDS011;3286;49.858;8.768;2023-12-14T07:39:12;11.00;;;6.20;;
6505;SDS011;3286;49.858;8.768;2023-12-14T07:41:39;10.07;;;6.47;;
6505;SDS011;3286;49.858;8.768;2023-12-14T07:44:05;9.80;;;6.73;;
6505;SDS011;3286;49.858;8.768;2023-12-14T07:46:32;15.77;;;8.77;;
6505;SDS011;3286;49.858;8.768;2023-12-14T07:49:01;14.60;;;8.07;;
6505;SDS011;3286;49.858;8.768;2023-12-14T07:51:28;12.67;;;8.13;;
6505;SDS011;3286;49.858;8.768;2023-12-14T07:53:54;13.87;;;8.37;;
6505;SDS011;3286;49.858;8.768;2023-12-14T07:56:21;12.90;;;6.53;;
6505;SDS011;3286;49.858;8.768;2023-12-14T07:58:50;11.97;;;6.67;;
6505;SDS011;3286;49.858;8.768;2023-12-14T08:01:17;9.00;;;5.40;;
6505;SDS011;3286;49.858;8.768;2023-12-14T08:03:43;10.20;;;6.43;;
6505;SDS011;3286;49.858;8.768;2023-12-14T08:06:12;46.10;;;12.90;;
6505;SDS011;3286;49.858;8.768;2023-12-14T08:08:39;12.97;;;6.63;;
6505;SDS011;3286;49.858;8.768;2023-12-14T08:11:05;15.93;;;6.37;;
6505;SDS011;3286;49.858;8.768;2023-12-14T08:13:32;12.00;;;6.53;;
6505;SDS011;3286;49.858;8.768;2023-12-14T08:15:59;14.77;;;5.93;;
6505;SDS011;3286;49.858;8.768;2023-12-14T08:18:26;13.30;;;6.63;;
6505;SDS011;3286;49.858;8.768;2023-12-14T08:20:52;14.17;;;8.40;;
6505;SDS011;3286;49.858;8.768;2023-12-14T08:23:21;13.23;;;6.27;;
6505;SDS011;3286;49.858;8.768;2023-12-14T08:25:48;9.83;;;5.90;;
6505;SDS011;3286;49.858;8.768;2023-12-14T08:28:15;11.83;;;5.77;;
6505;SDS011;3286;49.858;8.768;2023-12-14T08:30:41;12.37;;;7.10;;
6505;SDS011;3286;49.858;8.768;2023-12-14T08:33:08;17.50;;;7.20;;
6505;SDS011;3286;49.858;8.768;2023-12-14T08:35:34;15.83;;;6.97;;
6505;SDS011;3286;49.858;8.768;2023-12-14T08:38:01;17.30;;;7.43;;
6505;SDS011;3286;49.858;8.768;2023-12-14T08:40:29;13.33;;;8.40;;
6505;SDS011;3286;49.858;8.768;2023-12-14T08:42:56;12.77;;;7.80;;
6505;SDS011;3286;49.858;8.768;2023-12-14T08:45:24;12.97;;;7.67;;
6505;SDS011;3286;49.858;8.768;2023-12-14T08:47:51;13.57;;;6.77;;
6505;SDS011;3286;49.858;8.768;2023-12-14T08:50:18;15.00;;;7.70;;
6505;SDS011;3286;49.858;8.768;2023-12-14T08:52:44;14.80;;;7.67;;
6505;SDS011;3286;49.858;8.768;2023-12-14T08:55:12;12.33;;;7.57;;
6505;SDS011;3286;49.858;8.768;2023-12-14T08:57:40;16.00;;;7.53;;
6505;SDS011;3286;49.858;8.768;2023-12-14T09:00:07;13.47;;;7.23;;
6505;SDS011;3286;49.858;8.768;2023-12-14T09:02:35;16.23;;;8.07;;
6505;SDS011;3286;49.858;8.768;2023-12-14T09:05:02;17.80;;;8.63;;
6505;SDS011;3286;49.858;8.768;2023-12-14T09:07:29;13.53;;;8.33;;
6505;SDS011;3286;49.858;8.768;2023-12-14T09:09:56;12.23;;;7.43;;
6505;SDS011;3286;49.858;8.768;2023-12-14T09:12:22;14.57;;;8.77;;
6505;SDS011;3286;49.858;8.768;2023-12-14T09:14:50;23.13;;;9.53;;
6505;SDS011;3286;49.858;8.768;2023-12-14T09:17:17;21.00;;;9.10;;
6505;SDS011;3286;49.858;8.768;2023-12-14T09:19:44;25.33;;;9.23;;
6505;SDS011;3286;49.858;8.768;2023-12-14T09:22:10;14.90;;;7.93;;
6505;SDS011;3286;49.858;8.768;2023-12-14T09:24:37;12.87;;;7.57;;
6505;SDS011;3286;49.858;8.768;2023-12-14T09:27:04;14.23;;;8.47;;
6505;SDS011;3286;49.858;8.768;2023-12-14T09:29:30;11.70;;;7.50;;
6505;SDS011;3286;49.858;8.768;2023-12-14T09:31:58;12.27;;;7.30;;
6505;SDS011;3286;49.858;8.768;2023-12-14T09:34:25;15.70;;;7.90;;
6505;SDS011;3286;49.858;8.768;2023-12-14T09:36:51;14.23;;;7.73;;
6505;SDS011;3286;49.858;8.768;2023-12-14T09:39:18;23.20;;;9.63;;
6505;SDS011;3286;49.858;8.768;2023-12-14T09:41:46;13.33;;;7.23;;
6505;SDS011;3286;49.858;8.768;2023-12-14T09:44:13;28.90;;;10.03;;
6505;SDS011;3286;49.858;8.768;2023-12-14T09:46:40;11.53;;;7.50;;
6505;SDS011;3286;49.858;8.768;2023-12-14T09:49:15;12.77;;;7.27;;
6505;SDS011;3286;49.858;8.768;2023-12-14T09:51:43;16.30;;;7.60;;
6505;SDS011;3286;49.858;8.768;2023-12-14T09:54:10;12.93;;;7.03;;
6505;SDS011;3286;49.858;8.768;2023-12-14T09:56:44;12.03;;;7.27;;
6505;SDS011;3286;49.858;8.768;2023-12-14T09:59:12;11.20;;;7.30;;
6505;SDS011;3286;49.858;8.768;2023-12-14T10:01:38;14.47;;;6.80;;
6505;SDS011;3286;49.858;8.768;2023-12-14T10:04:07;11.30;;;6.87;;
6505;SDS011;3286;49.858;8.768;2023-12-14T10:06:36;15.13;;;6.93;;
6505;SDS011;3286;49.858;8.768;2023-12-14T10:09:03;16.27;;;7.80;;
6505;SDS011;3286;49.858;8.768;2023-12-14T10:11:34;10.43;;;6.27;;
6505;SDS011;3286;49.858;8.768;2023-12-14T10:14:00;9.77;;;5.90;;
6505;SDS011;3286;49.858;8.768;2023-12-14T10:16:27;12.83;;;6.67;;
6505;SDS011;3286;49.858;8.768;2023-12-14T10:18:56;14.53;;;7.03;;
6505;SDS011;3286;49.858;8.768;2023-12-14T10:21:23;11.83;;;6.43;;
6505;SDS011;3286;49.858;8.768;2023-12-14T10:23:52;12.83;;;6.10;;
6505;SDS011;3286;49.858;8.768;2023-12-14T10:26:21;9.67;;;6.13;;
6505;SDS011;3286;49.858;8.768;2023-12-14T10:28:48;11.47;;;5.57;;
6505;SDS011;3286;49.858;8.768;2023-12-14T10:31:16;10.27;;;6.30;;
6505;SDS011;3286;49.858;8.768;2023-12-14T10:33:43;10.63;;;5.53;;
6505;SDS011;3286;49.858;8.768;2023-12-14T10:36:11;9.57;;;5.27;;
6505;SDS011;3286;49.858;8.768;2023-12-14T10:38:39;7.27;;;4.20;;
6505;SDS011;3286;49.858;8.768;2023-12-14T10:41:10;5.83;;;3.57;;
6505;SDS011;3286;49.858;8.768;2023-12-14T10:43:39;10.87;;;4.77;;
6505;SDS011;3286;49.858;8.768;2023-12-14T10:46:07;6.77;;;4.33;;
6505;SDS011;3286;49.858;8.768;2023-12-14T10:48:36;9.50;;;4.17;;
6505;SDS011;3286;49.858;8.768;2023-12-14T10:51:03;9.00;;;4.80;;
6505;SDS011;3286;49.858;8.768;2023-12-14T10:53:30;6.97;;;4.27;;
6505;SDS011;3286;49.858;8.768;2023-12-14T10:55:58;8.97;;;3.80;;
6505;SDS011;3286;49.858;8.768;2023-12-14T10:58:31;7.03;;;4.00;;
6505;SDS011;3286;49.858;8.768;2023-12-14T11:01:13;7.97;;;3.97;;
6505;SDS011;3286;49.858;8.768;2023-12-14T11:03:40;6.33;;;3.97;;
6505;SDS011;3286;49.858;8.768;2023-12-14T11:06:16;7.63;;;4.20;;
6505;SDS011;3286;49.858;8.768;2023-12-14T11:08:47;6.57;;;4.00;;
6505;SDS011;3286;49.858;8.768;2023-12-14T11:11:14;6.47;;;3.80;;
6505;SDS011;3286;49.858;8.768;2023-12-14T11:13:47;5.37;;;3.33;;
6505;SDS011;3286;49.858;8.768;2023-12-14T11:16:19;4.63;;;3.67;;
6505;SDS011;3286;49.858;8.768;2023-12-14T11:18:46;7.33;;;3.93;;
6505;SDS011;3286;49.858;8.768;2023-12-14T11:21:17;6.40;;;3.70;;
6505;SDS011;3286;49.858;8.768;2023-12-14T11:23:46;10.53;;;4.27;;
6505;SDS011;3286;49.858;8.768;2023-12-14T11:26:20;6.40;;;3.70;;
6505;SDS011;3286;49.858;8.768;2023-12-14T11:28:49;5.03;;;3.77;;
6505;SDS011;3286;49.858;8.768;2023-12-14T11:31:16;6.97;;;4.23;;
6505;SDS011;3286;49.858;8.768;2023-12-14T11:33:43;6.90;;;3.80;;
6505;SDS011;3286;49.858;8.768;2023-12-14T11:36:13;5.47;;;3.80;;
6505;SDS011;3286;49.858;8.768;2023-12-14T11:38:41;6.27;;;3.63;;
6505;SDS011;3286;49.858;8.768;2023-12-14T11:41:08;6.00;;;3.50;;
6505;SDS011;3286;49.858;8.768;2023-12-14T11:43:43;5.57;;;3.67;;
6505;SDS011;3286;49.858;8.768;2023-12-14T11:46:11;7.27;;;3.60;;
6505;SDS011;3286;49.858;8.768;2023-12-14T11:48:39;5.67;;;3.20;;
6505;SDS011;3286;49.858;8.768;2023-12-14T11:51:06;4.90;;;3.20;;
6505;SDS011;3286;49.858;8.768;2023-12-14T11:53:32;5.47;;;3.10;;
6505;SDS011;3286;49.858;8.768;2023-12-14T11:56:03;5.93;;;3.57;;
6505;SDS011;3286;49.858;8.768;2023-12-14T11:58:31;5.30;;;3.50;;
6505;SDS011;3286;49.858;8.768;2023-12-14T12:01:11;5.93;;;3.80;;
6505;SDS011;3286;49.858;8.768;2023-12-14T12:03:41;4.97;;;3.13;;
6505;SDS011;3286;49.858;8.768;2023-12-14T12:06:18;5.33;;;3.30;;
6505;SDS011;3286;49.858;8.768;2023-12-14T12:08:46;4.17;;;3.00;;
6505;SDS011;3286;49.858;8.768;2023-12-14T12:11:15;5.03;;;3.40;;
6505;SDS011;3286;49.858;8.768;2023-12-14T12:13:43;7.47;;;3.20;;
6505;SDS011;3286;49.858;8.768;2023-12-14T12:16:09;5.57;;;3.10;;
6505;SDS011;3286;49.858;8.768;2023-12-14T12:18:37;5.90;;;2.70;;
6505;SDS011;3286;49.858;8.768;2023-12-14T12:21:04;5.13;;;2.73;;
6505;SDS011;3286;49.858;8.768;2023-12-14T12:23:33;11.73;;;3.17;;
6505;SDS011;3286;49.858;8.768;2023-12-14T12:25:59;4.07;;;2.60;;
6505;SDS011;3286;49.858;8.768;2023-12-14T12:28:26;5.33;;;2.87;;
6505;SDS011;3286;49.858;8.768;2023-12-14T12:30:53;5.17;;;2.97;;
6505;SDS011;3286;49.858;8.768;2023-12-14T12:33:20;3.50;;;2.50;;
6505;SDS011;3286;49.858;8.768;2023-12-14T12:35:48;4.77;;;2.80;;
6505;SDS011;3286;49.858;8.768;2023-12-14T12:38:15;3.40;;;2.43;;
6505;SDS011;3286;49.858;8.768;2023-12-14T12:40:44;3.23;;;2.33;;
6505;SDS011;3286;49.858;8.768;2023-12-14T12:43:11;5.13;;;2.67;;
6505;SDS011;3286;49.858;8.768;2023-12-14T12:45:40;3.00;;;2.47;;
6505;SDS011;3286;49.858;8.768;2023-12-14T12:48:05;4.13;;;2.73;;
6505;SDS011;3286;49.858;8.768;2023-12-14T12:50:33;4.43;;;2.63;;
6505;SDS011;3286;49.858;8.768;2023-12-14T12:53:01;3.03;;;2.20;;
6505;SDS011;3286;49.858;8.768;2023-12-14T12:55:28;3.13;;;2.40;;
6505;SDS011;3286;49.858;8.768;2023-12-14T12:57:54;3.47;;;2.33;;
6505;SDS011;3286;49.858;8.768;2023-12-14T13:00:22;3.03;;;2.33;;
6505;SDS011;3286;49.858;8.768;2023-12-14T13:02:49;4.27;;;2.37;;
6505;SDS011;3286;49.858;8.768;2023-12-14T13:05:15;3.63;;;2.30;;
6505;SDS011;3286;49.858;8.768;2023-12-14T13:07:43;4.87;;;2.40;;
6505;SDS011;3286;49.858;8.768;2023-12-14T13:10:12;3.93;;;2.30;;
6505;SDS011;3286;49.858;8.768;2023-12-14T13:12:40;4.33;;;2.50;;
6505;SDS011;3286;49.858;8.768;2023-12-14T13:15:07;3.47;;;2.10;;
6505;SDS011;3286;49.858;8.768;2023-12-14T13:17:34;5.73;;;2.57;;
6505;SDS011;3286;49.858;8.768;2023-12-14T13:20:01;4.40;;;2.27;;
6505;SDS011;3286;49.858;8.768;2023-12-14T13:22:28;4.40;;;2.60;;
6505;SDS011;3286;49.858;8.768;2023-12-14T13:24:54;4.97;;;2.57;;
6505;SDS011;3286;49.858;8.768;2023-12-14T13:27:22;4.03;;;2.80;;
6505;SDS011;3286;49.858;8.768;2023-12-14T13:29:50;3.53;;;2.30;;
6505;SDS011;3286;49.858;8.768;2023-12-14T13:32:16;2.73;;;2.20;;
6505;SDS011;3286;49.858;8.768;2023-12-14T13:34:43;4.07;;;2.77;;
6505;SDS011;3286;49.858;8.768;2023-12-14T13:37:09;3.17;;;2.40;;
6505;SDS011;3286;49.858;8.768;2023-12-14T13:39:36;4.03;;;2.53;;
6505;SDS011;3286;49.858;8.768;2023-12-14T13:42:03;3.07;;;2.53;;
6505;SDS011;3286;49.858;8.768;2023-12-14T13:44:31;4.83;;;2.60;;
6505;SDS011;3286;49.858;8.768;2023-12-14T13:46:59;4.80;;;2.47;;
6505;SDS011;3286;49.858;8.768;2023-12-14T13:49:26;7.07;;;2.53;;
6505;SDS011;3286;49.858;8.768;2023-12-14T13:51:52;2.93;;;2.10;;
6505;SDS011;3286;49.858;8.768;2023-12-14T13:54:19;3.37;;;2.37;;
6505;SDS011;3286;49.858;8.768;2023-12-14T13:56:46;3.47;;;2.40;;
6505;SDS011;3286;49.858;8.768;2023-12-14T13:59:12;4.00;;;2.60;;
6505;SDS011;3286;49.858;8.768;2023-12-14T14:01:40;5.10;;;2.40;;
6505;SDS011;3286;49.858;8.768;2023-12-14T14:04:07;4.00;;;2.60;;
6505;SDS011;3286;49.858;8.768;2023-12-14T14:06:34;2.87;;;2.10;;
6505;SDS011;3286;49.858;8.768;2023-12-14T14:09:01;4.50;;;2.63;;
6505;SDS011;3286;49.858;8.768;2023-12-14T14:11:29;2.73;;;2.17;;
6505;SDS011;3286;49.858;8.768;2023-12-14T14:13:56;3.70;;;2.67;;
6505;SDS011;3286;49.858;8.768;2023-12-14T14:16:22;3.83;;;2.50;;
6505;SDS011;3286;49.858;8.768;2023-12-14T14:18:50;2.20;;;2.00;;
6505;SDS011;3286;49.858;8.768;2023-12-14T14:21:17;3.77;;;2.53;;
6505;SDS011;3286;49.858;8.768;2023-12-14T14:23:44;2.83;;;2.23;;
6505;SDS011;3286;49.858;8.768;2023-12-14T14:26:10;3.77;;;2.50;;
6505;SDS011;3286;49.858;8.768;2023-12-14T14:28:37;2.80;;;2.30;;
6505;SDS011;3286;49.858;8.768;2023-12-14T14:31:03;4.47;;;2.47;;
6505;SDS011;3286;49.858;8.768;2023-12-14T14:33:30;2.37;;;2.10;;
6505;SDS011;3286;49.858;8.768;2023-12-14T14:35:59;3.50;;;2.70;;
6505;SDS011;3286;49.858;8.768;2023-12-14T14:38:30;4.87;;;2.50;;
6505;SDS011;3286;49.858;8.768;2023-12-14T14:40:56;3.30;;;2.60;;
6505;SDS011;3286;49.858;8.768;2023-12-14T14:43:23;4.17;;;2.47;;
6505;SDS011;3286;49.858;8.768;2023-12-14T14:45:49;4.83;;;2.70;;
6505;SDS011;3286;49.858;8.768;2023-12-14T14:48:16;4.10;;;2.83;;
6505;SDS011;3286;49.858;8.768;2023-12-14T14:50:44;3.97;;;2.60;;
6505;SDS011;3286;49.858;8.768;2023-12-14T14:53:12;5.70;;;3.33;;
6505;SDS011;3286;49.858;8.768;2023-12-14T14:55:39;5.33;;;3.30;;
6505;SDS011;3286;49.858;8.768;2023-12-14T14:58:05;4.10;;;3.03;;
6505;SDS011;3286;49.858;8.768;2023-12-14T15:00:32;4.97;;;3.30;;
6505;SDS011;3286;49.858;8.768;2023-12-14T15:03:03;4.90;;;3.30;;
6505;SDS011;3286;49.858;8.768;2023-12-14T15:05:33;6.40;;;3.43;;
6505;SDS011;3286;49.858;8.768;2023-12-14T15:07:59;5.90;;;3.60;;